MI19 weather

Thorn Airport
Custer, Michigan, United States

Public forecast

Using degrees Fahrenheit for public forecast. Weather courtesy of forecast.io.

METAR (pilot weather report)

Closest report is Mason County Airport, 10.7 nm (19.7 km) W. Retrieved 2019/07/21 10:38 UTC (0 seconds ago):

KLDM 211038Z AUTO 00000KT 1SM BR BKN002 BKN100 16/16 A2995 RMK AO2 T01610157

TAF (pilot weather forecast)

Closest forecast is Manistee Co Blacker Airport, 20.9 nm (38.6 km) N. Retrieved 2019/07/21 06:21 UTC (4 hours ago):

TAF KMBL 210520Z 2106/2206 00000KT 6SM BR SCT040 BKN150 TEMPO 2106/2110 1SM BR SCT002 FM211200 00000KT P6SM BKN150 FM211700 33009KT P6SM FEW250 FM212300 36007KT P6SM FEW250